North Star, MI

05:11 EST le 01 février 2015 (GMT -0500)
MBS International | Change Station
CLOSE
Current Station
Aéroport
Location: Saginaw,
Altitude: 669 ft
Stations météo à proximité
Avis météorologiques actifs: Winter Weather Advisory

Alt. 669 ft 43.53 °N, 84.08 °W | Updated 18 minutes ago

Neige
Neige
20 ° F
Paraît 7 ° F
N
14
Vent Variable Vent de NNE

Aujourd'hui
Haut(e) -- | Bas -- ° F
--% Risque de précip.
Hier
Haut(e) -- | Bas -- ° F
Precip. -- pouce
7:54 AM 5:50 PM
Lune gibbeuse croissante, 94% visible
Pression 30.26 pouce
Visibilité 10.0 Miles terrestres
Nuages Couvert 4800 ft
Refroidissement éolien 7 ° F
Point de rosée 11 ° F
Humidité 68%
Précipitations 0.00 pouce
Profondeur de la couche neigeuse Non disponible.
UV 0 sur 12
Pollen .10 sur 12
Qualité de l'air Non disponible.
Flu Activity Non disponible.
METAR KMBS 010953Z 03012KT 10SM OVC048 M07/M12 A3023 RMK AO2 SLP246 T10671117

More Conditions Fewer Conditions

Pression 30.26 pouce
Visibilité 10.0 Miles terrestres
Nuages Couvert 4800 ft
Refroidissement éolien 7 ° F
Point de rosée 11 ° F
Humidité 68%
Précipitations 0.00 pouce
Profondeur de la couche neigeuse Non disponible.
UV 0 sur 12
Pollen .10 sur 12
Qualité de l'air Non disponible.
Flu Activity Non disponible.
METAR KMBS 010953Z 03012KT 10SM OVC048 M07/M12 A3023 RMK AO2 SLP246 T10671117

More Conditions Fewer Conditions

10-Day Weather Forecast

Almanac

Astronomie

Feb. 01, 2015 Lever Coucher
Temps réel
Crépuscule civil
Crépuscule nautique
Crépuscule astronomique
Lune
Durée de lumière visible
Longueur du jour
Tomorrow will be .
, % of the Moon is Illuminated

Extrêmes aujourd'hui

State Highs State Lows

Community

WunderPhotos

Upload Photos

1,792,330 Photos téléchargées !

WunderBlogs® & News

Nearby

Qualité de l'air

  Qualité de l'air Indice de la qualité de l'air Polluant
Not available.

Épaisseur de neige

Station Depth Altitude

Activité sismique

Ville Distance Mag. Time & Date
Minimum magnitude displayed is 2.5.

Températures des eaux côtières

Lieu Température

Stations météo à proximité